Laie, HI (96762)

8:26 AM HST on August 02, 2015 (GMT -1000)
Mililani Mauka | | Change Station
CLOSE
Current Station
Personal Weather Station
Location: Mililani, HI
Elevation: 843 ft
Nearby Weather Stations
Active Advisory: High Surf Advisory

Elev 843 ft 21.48 °N, 158.00 °W | Updated 5 minutes ago

Scattered Clouds
Scattered Clouds
81.7 °F
Feels Like 84 °F
N
5.3
Wind Variable Wind from North

Today
High -- | Low -- °F
--% Chance of Precip.
Yesterday
High -- | Low -- °F
Precip. -- in
6:05 AM 7:10 PM
Waning Gibbous, 92% visible
Pressure 29.91 in
Visibility -9999.0 miles
Clouds Scattered Clouds 2800 ft
Scattered Clouds 3700 ft
Heat Index 84 °F
Dew Point 67 °F
Humidity 62%
Rainfall 0.00 in
Snow Depth Not available.
UV 2 out of 12
Pollen Not available.
Air Quality Not available.
Flu Activity Not available.
METAR PHNG 021757Z 05006KT SCT028 SCT037 27/22 A2992 RMK AO2 SLP127 T02670217 10267 20244 53009 $

More Conditions Fewer Conditions

Pressure 29.91 in
Visibility -9999.0 miles
Clouds Scattered Clouds 2800 ft
Scattered Clouds 3700 ft
Heat Index 84 °F
Dew Point 67 °F
Humidity 62%
Rainfall 0.00 in
Snow Depth Not available.
UV 2 out of 12
Pollen Not available.
Air Quality Not available.
Flu Activity Not available.
METAR PHNG 021757Z 05006KT SCT028 SCT037 27/22 A2992 RMK AO2 SLP127 T02670217 10267 20244 53009 $

More Conditions Fewer Conditions

10-Day Weather Forecast

×

Almanac

Astronomy

Aug. 02, 2015 Rise Set
Actual Time
Civil Twilight
Nautical Twilight
Astronomical Twilight
Moon
Length of Visible Light
Length of Day
Tomorrow will be .
, % of the Moon is Illuminated

Today's Extremes

State Highs State Lows

Community

WunderPhotos

Upload Photos

1,843,333 photos uploaded!

WunderBlogs® & News

Nearby

Air Quality

  Air Quality AQ Index Pollutant
Not available.

Snow Depth

Station Depth Elevation

Earthquake Activity

City Distance Mag. Time & Date
Minimum magnitude displayed is 2.5.

Coastal Water Temperatures

Place Temperature

Stations

Nearby Weather Stations

Station Location Temp. Windchill Dew Point Humidity Wind Precip. Elev Updated Type
                   
High Surf Advisory
Statement as of 3:33 AM HST on August 02, 2015

... High surf advisory remains in effect from noon today to 6 PM
HST Tuesday...

A high surf advisory remains in effect from noon today to 6 PM
HST Tuesday.

* Surf... along east facing shores... building to 5 to 8 feet by
late this afternoon... 8 to 12 feet tonight... and 10 to 14 feet
Monday.

* Timing... surf will build this afternoon and tonight... peaking
Monday night.

* Impacts... moderate... expect strong breaking waves... shore
break... and strong longshore and rip currents making swimming
difficult and dangerous.

Precautionary/preparedness actions... beachgoers... swimmers... and
surfers should heed all advice given by ocean safety officials
and exercise caution. Boaters should expect recreational surfers
and body boarders utilizing Harbor channels to access surfing
areas.


Lau